createdAt,value
2023-02-06T00:00:08.030Z,0.00
2023-02-06T00:01:07.989Z,0.00
2023-02-06T00:02:07.950Z,0.00
2023-02-06T00:03:07.892Z,0.00
2023-02-06T00:04:07.851Z,0.00
2023-02-06T00:05:07.814Z,0.00
2023-02-06T00:06:07.842Z,0.00
2023-02-06T00:07:07.731Z,0.00
2023-02-06T00:08:07.700Z,0.00
2023-02-06T00:09:07.648Z,0.00
2023-02-06T00:10:07.625Z,0.00
2023-02-06T00:11:07.574Z,0.00
2023-02-06T00:12:07.533Z,0.00
2023-02-06T00:13:07.491Z,0.00
2023-02-06T00:14:07.450Z,0.00
2023-02-06T00:15:07.416Z,0.00
2023-02-06T00:16:07.404Z,0.00
2023-02-06T00:17:07.331Z,0.00
2023-02-06T00:18:07.297Z,0.00
2023-02-06T00:19:07.270Z,0.00
2023-02-06T00:20:07.215Z,0.00
2023-02-06T00:21:07.179Z,0.00
2023-02-06T00:22:07.141Z,0.00
2023-02-06T00:23:07.732Z,0.00
2023-02-06T00:24:07.069Z,0.00
2023-02-06T00:25:07.020Z,0.00
2023-02-06T00:26:06.991Z,0.00
2023-02-06T00:27:06.942Z,0.00
2023-02-06T00:28:06.959Z,0.00
2023-02-06T00:29:06.864Z,0.00
2023-02-06T00:30:06.823Z,0.00
2023-02-06T00:31:06.910Z,0.00
2023-02-06T00:32:06.751Z,0.00
2023-02-06T00:33:06.705Z,0.00
2023-02-06T00:34:06.664Z,0.00
2023-02-06T00:35:06.627Z,0.00
2023-02-06T00:36:06.584Z,0.00
2023-02-06T00:37:06.550Z,0.00
2023-02-06T00:38:06.510Z,0.00
2023-02-06T00:39:06.470Z,0.00
2023-02-06T00:40:06.425Z,0.00
2023-02-06T00:41:06.427Z,0.00
2023-02-06T00:42:06.351Z,0.00
2023-02-06T00:43:06.309Z,0.00
2023-02-06T00:44:06.283Z,0.00
2023-02-06T00:45:06.251Z,0.00
2023-02-06T00:46:06.257Z,0.00
2023-02-06T00:47:06.154Z,0.00
2023-02-06T00:48:06.123Z,0.00
2023-02-06T00:49:06.090Z,0.00
2023-02-06T00:50:06.103Z,0.00
2023-02-06T00:51:05.996Z,0.00
2023-02-06T00:52:05.959Z,0.00
2023-02-06T00:53:05.921Z,0.00
2023-02-06T00:54:05.874Z,0.00
2023-02-06T00:55:05.881Z,0.00
2023-02-06T00:56:05.822Z,0.00
2023-02-06T00:57:05.764Z,0.00
2023-02-06T00:58:05.718Z,0.00
2023-02-06T00:59:05.687Z,0.00
2023-02-06T01:00:05.658Z,0.00
2023-02-06T01:01:05.610Z,0.00
2023-02-06T01:02:05.568Z,0.00
2023-02-06T01:03:05.519Z,0.00
2023-02-06T01:04:05.499Z,0.00
2023-02-06T01:05:05.445Z,0.00
2023-02-06T01:06:05.397Z,0.00
2023-02-06T01:07:05.359Z,0.00
2023-02-06T01:08:05.313Z,0.00
2023-02-06T01:09:05.288Z,0.00
2023-02-06T01:10:05.246Z,0.00
2023-02-06T01:11:05.201Z,0.00
2023-02-06T01:12:05.197Z,0.00
2023-02-06T01:13:05.123Z,0.00
2023-02-06T01:14:05.080Z,0.00
2023-02-06T01:15:05.043Z,0.00
2023-02-06T01:16:05.041Z,0.00
2023-02-06T01:17:04.960Z,0.00
2023-02-06T01:18:04.920Z,0.00
2023-02-06T01:19:04.886Z,0.00
2023-02-06T01:20:04.868Z,0.00
2023-02-06T01:21:04.807Z,0.00
2023-02-06T01:22:04.768Z,0.00
2023-02-06T01:23:04.736Z,0.00
2023-02-06T01:24:04.685Z,0.00
2023-02-06T01:25:04.643Z,0.00
2023-02-06T01:26:04.599Z,0.00
2023-02-06T01:27:04.563Z,0.00
2023-02-06T01:28:04.550Z,0.00
2023-02-06T01:29:04.487Z,0.00
2023-02-06T01:30:04.515Z,0.00
2023-02-06T01:31:04.542Z,0.00
2023-02-06T01:32:04.359Z,0.00
2023-02-06T01:33:04.325Z,0.00
2023-02-06T01:34:04.288Z,0.00
2023-02-06T01:35:04.242Z,0.00
2023-02-06T01:36:04.209Z,0.00
2023-02-06T01:37:04.164Z,0.00
2023-02-06T01:38:04.122Z,0.00
2023-02-06T01:39:04.088Z,0.00
2023-02-06T01:40:04.050Z,0.00
2023-02-06T01:41:04.018Z,0.00
2023-02-06T01:42:03.964Z,0.00
2023-02-06T01:43:03.926Z,0.00
2023-02-06T01:44:03.892Z,0.00
2023-02-06T01:45:03.851Z,0.00
2023-02-06T01:46:03.807Z,0.00
2023-02-06T01:47:03.766Z,0.00
2023-02-06T01:48:03.724Z,0.00
2023-02-06T01:49:06.028Z,0.00
2023-02-06T01:50:03.687Z,0.00
2023-02-06T01:51:03.611Z,0.00
2023-02-06T01:52:03.581Z,0.00
2023-02-06T01:53:03.539Z,0.00
2023-02-06T01:54:03.490Z,0.00
2023-02-06T01:55:03.458Z,0.00
2023-02-06T01:56:03.415Z,0.00
2023-02-06T01:57:03.369Z,0.00
2023-02-06T01:58:03.331Z,0.00
2023-02-06T01:59:03.296Z,0.00
2023-02-06T02:00:03.279Z,0.00
2023-02-06T02:01:03.270Z,0.00
2023-02-06T02:02:03.318Z,0.00
2023-02-06T02:03:03.135Z,0.00
2023-02-06T02:04:03.115Z,0.00
2023-02-06T02:05:03.075Z,0.00
2023-02-06T02:06:03.014Z,0.00
2023-02-06T02:07:03.015Z,0.00
2023-02-06T02:08:02.956Z,0.00
2023-02-06T02:09:02.894Z,0.00
2023-02-06T02:10:02.861Z,0.00
2023-02-06T02:11:02.823Z,0.00
2023-02-06T02:12:02.774Z,0.00
2023-02-06T02:13:02.741Z,0.00
2023-02-06T02:14:02.694Z,0.00
2023-02-06T02:15:02.676Z,0.00
2023-02-06T02:16:02.662Z,0.00
2023-02-06T02:17:02.575Z,0.00
2023-02-06T02:18:02.566Z,0.00
2023-02-06T02:19:02.501Z,0.00
2023-02-06T02:20:02.457Z,0.00
2023-02-06T02:21:02.425Z,0.00
2023-02-06T02:22:02.384Z,0.00
2023-02-06T02:23:02.334Z,0.00
2023-02-06T02:24:02.306Z,0.00
2023-02-06T02:25:02.267Z,0.00
2023-02-06T02:26:02.244Z,0.00
2023-02-06T02:27:02.185Z,0.00
2023-02-06T02:28:03.005Z,0.00
2023-02-06T02:29:02.102Z,0.00
2023-02-06T02:30:02.084Z,0.00
2023-02-06T02:31:02.025Z,0.00
2023-02-06T02:32:01.984Z,0.00
2023-02-06T02:33:01.946Z,0.00
2023-02-06T02:34:01.900Z,0.00
2023-02-06T02:35:01.861Z,0.00
2023-02-06T02:36:01.820Z,0.00
2023-02-06T02:37:01.798Z,0.00
2023-02-06T02:38:01.776Z,0.00
2023-02-06T02:39:01.701Z,0.00
2023-02-06T02:40:01.679Z,0.00
2023-02-06T02:41:01.626Z,0.00
2023-02-06T02:42:01.596Z,0.00
2023-02-06T02:43:01.547Z,0.00
2023-02-06T02:44:01.506Z,0.00
2023-02-06T02:45:01.473Z,0.00
2023-02-06T02:46:01.475Z,0.00
2023-02-06T02:47:01.382Z,0.00
2023-02-06T02:48:01.348Z,0.00
2023-02-06T02:49:01.293Z,0.00
2023-02-06T02:50:01.254Z,0.00
2023-02-06T02:51:01.217Z,0.00
2023-02-06T02:52:01.171Z,0.00
2023-02-06T02:53:01.134Z,0.00
2023-02-06T02:54:01.092Z,0.00
2023-02-06T02:55:01.051Z,0.00
2023-02-06T02:56:01.087Z,0.00
2023-02-06T02:57:00.982Z,0.00
2023-02-06T02:58:00.933Z,0.00
2023-02-06T02:59:00.910Z,0.00
2023-02-06T03:00:00.862Z,0.00
2023-02-06T03:01:00.865Z,0.00
2023-02-06T03:02:00.777Z,0.00
2023-02-06T03:03:00.734Z,0.00
2023-02-06T03:04:00.685Z,0.00
2023-02-06T03:05:00.661Z,0.00
2023-02-06T03:06:00.617Z,0.00
2023-02-06T03:07:00.568Z,0.00
2023-02-06T03:08:00.529Z,0.00
2023-02-06T03:09:00.490Z,0.00
2023-02-06T03:10:00.445Z,0.00
2023-02-06T03:11:00.411Z,0.00
2023-02-06T03:12:00.388Z,0.00
2023-02-06T03:13:00.323Z,0.00
2023-02-06T03:14:00.287Z,0.00
2023-02-06T03:15:00.246Z,0.00
2023-02-06T03:16:00.202Z,0.00
2023-02-06T03:17:00.164Z,0.00
2023-02-06T03:18:00.118Z,0.00
2023-02-06T03:19:00.119Z,0.00
2023-02-06T03:20:00.059Z,0.00
2023-02-06T03:21:00.041Z,0.00
2023-02-06T03:21:59.961Z,0.00
2023-02-06T03:22:59.921Z,0.00
2023-02-06T03:23:59.876Z,0.00
2023-02-06T03:24:59.842Z,0.00
2023-02-06T03:25:59.797Z,0.00
2023-02-06T03:26:59.757Z,0.00
2023-02-06T03:27:59.774Z,0.00
2023-02-06T03:28:59.684Z,0.00
2023-02-06T03:29:59.636Z,0.00
2023-02-06T03:30:59.660Z,0.00
2023-02-06T03:31:59.554Z,0.00
2023-02-06T03:32:59.519Z,0.00
2023-02-06T03:33:59.502Z,0.00
2023-02-06T03:34:59.445Z,0.00
2023-02-06T03:35:59.400Z,0.00
2023-02-06T03:36:59.358Z,0.00
2023-02-06T03:37:59.342Z,0.00
2023-02-06T03:38:59.276Z,0.00
2023-02-06T03:39:59.237Z,0.00
2023-02-06T03:40:59.192Z,0.00
2023-02-06T03:41:59.172Z,0.00
2023-02-06T03:42:59.123Z,0.00
2023-02-06T03:43:59.077Z,0.00
2023-02-06T03:44:59.034Z,0.00
2023-02-06T03:45:59.014Z,0.00
2023-02-06T03:46:58.952Z,0.00
2023-02-06T03:47:58.912Z,0.00
2023-02-06T03:48:58.870Z,0.00
2023-02-06T03:49:58.853Z,0.00
2023-02-06T03:50:58.787Z,0.00
2023-02-06T03:51:58.756Z,0.00
2023-02-06T03:52:58.712Z,0.00
2023-02-06T03:53:58.676Z,0.00
2023-02-06T03:54:58.624Z,0.00
2023-02-06T03:55:58.595Z,0.00
2023-02-06T03:56:58.549Z,0.00
2023-02-06T03:57:58.507Z,0.00
2023-02-06T03:58:58.473Z,0.00
2023-02-06T03:59:58.429Z,0.00
2023-02-06T04:00:58.437Z,0.00
2023-02-06T04:01:58.438Z,0.00
2023-02-06T04:02:58.303Z,0.00
2023-02-06T04:03:58.278Z,0.00
2023-02-06T04:04:58.228Z,0.00
2023-02-06T04:05:58.196Z,0.00
2023-02-06T04:06:58.147Z,0.00
2023-02-06T04:07:58.150Z,0.00
2023-02-06T04:08:58.060Z,0.00
2023-02-06T04:09:58.017Z,0.00
2023-02-06T04:10:57.985Z,0.00
2023-02-06T04:11:57.972Z,0.00
2023-02-06T04:12:57.914Z,0.00
2023-02-06T04:13:57.863Z,0.00
2023-02-06T04:14:57.815Z,0.00
2023-02-06T04:15:57.789Z,0.00
2023-02-06T04:16:57.742Z,0.00
2023-02-06T04:18:00.947Z,0.00
2023-02-06T04:18:57.652Z,0.00
2023-02-06T04:19:57.619Z,0.00
2023-02-06T04:20:57.586Z,0.00
2023-02-06T04:21:57.581Z,0.00
2023-02-06T04:22:57.498Z,0.00
2023-02-06T04:23:57.452Z,0.00
2023-02-06T04:24:57.424Z,0.00
2023-02-06T04:25:57.373Z,0.00
2023-02-06T04:26:57.392Z,0.00
2023-02-06T04:27:57.364Z,0.00
2023-02-06T04:28:57.251Z,0.00
2023-02-06T04:29:57.209Z,0.00
2023-02-06T04:30:57.301Z,0.00
2023-02-06T04:31:57.136Z,0.00
2023-02-06T04:32:57.086Z,0.00
2023-02-06T04:33:57.052Z,0.00
2023-02-06T04:34:57.023Z,0.00
2023-02-06T04:35:56.971Z,0.00
2023-02-06T04:36:56.931Z,0.00
2023-02-06T04:37:56.892Z,0.00
2023-02-06T04:38:56.850Z,0.00
2023-02-06T04:39:56.805Z,0.00
2023-02-06T04:40:56.765Z,0.00
2023-02-06T04:41:56.720Z,0.00
2023-02-06T04:42:56.680Z,0.00
2023-02-06T04:43:56.638Z,0.00
2023-02-06T04:44:56.598Z,0.00
2023-02-06T04:45:56.621Z,0.00
2023-02-06T04:46:56.535Z,0.00
2023-02-06T04:47:58.532Z,0.00
2023-02-06T04:48:56.430Z,0.00
2023-02-06T04:49:56.392Z,0.00
2023-02-06T04:50:56.364Z,0.00
2023-02-06T04:51:56.313Z,0.00
2023-02-06T04:52:56.274Z,0.00
2023-02-06T04:53:56.288Z,0.00
2023-02-06T04:54:56.203Z,0.00
2023-02-06T04:55:56.149Z,0.00
2023-02-06T04:56:56.114Z,0.00
2023-02-06T04:57:56.067Z,0.00
2023-02-06T04:58:56.031Z,0.00
2023-02-06T04:59:56.000Z,0.00
2023-02-06T05:00:55.947Z,0.00
2023-02-06T05:01:55.909Z,0.00
2023-02-06T05:02:55.919Z,0.00
2023-02-06T05:03:55.965Z,0.00
2023-02-06T05:04:55.785Z,0.00
2023-02-06T05:05:55.741Z,0.00
2023-02-06T05:06:55.698Z,0.00
2023-02-06T05:07:55.657Z,0.00
2023-02-06T05:08:55.620Z,0.00
2023-02-06T05:09:55.583Z,0.00
2023-02-06T05:10:55.548Z,0.00
2023-02-06T05:11:55.497Z,0.00
2023-02-06T05:12:55.452Z,0.00
2023-02-06T05:13:55.414Z,0.00
2023-02-06T05:14:55.394Z,0.00
2023-02-06T05:15:55.408Z,0.00
2023-02-06T05:16:55.294Z,0.00
2023-02-06T05:17:55.257Z,0.00
2023-02-06T05:18:55.209Z,0.00
2023-02-06T05:19:57.382Z,0.00
2023-02-06T05:20:55.130Z,0.00
2023-02-06T05:21:55.088Z,0.00
2023-02-06T05:22:55.059Z,0.00
2023-02-06T05:23:55.006Z,0.00
2023-02-06T05:24:54.968Z,0.00
2023-02-06T05:25:54.924Z,0.00
2023-02-06T05:26:54.884Z,0.00
2023-02-06T05:27:54.854Z,0.00
2023-02-06T05:28:54.802Z,0.00
2023-02-06T05:29:54.772Z,0.00
2023-02-06T05:30:54.861Z,0.00
2023-02-06T05:31:54.761Z,0.00
2023-02-06T05:32:54.644Z,0.00
2023-02-06T05:33:54.604Z,0.00
2023-02-06T05:34:54.557Z,0.00
2023-02-06T05:35:54.533Z,0.00
2023-02-06T05:36:54.480Z,0.00
2023-02-06T05:37:54.440Z,0.00
2023-02-06T05:38:54.398Z,0.00
2023-02-06T05:39:54.357Z,0.00
2023-02-06T05:40:54.338Z,0.00
2023-02-06T05:41:54.284Z,0.00
2023-02-06T05:42:54.241Z,0.00
2023-02-06T05:43:54.203Z,0.00
2023-02-06T05:44:54.170Z,0.00
2023-02-06T05:45:54.122Z,0.00
2023-02-06T05:46:54.102Z,0.00
2023-02-06T05:47:54.044Z,0.00
2023-02-06T05:48:53.997Z,0.00
2023-02-06T05:49:53.954Z,0.00
2023-02-06T05:50:53.919Z,0.00
2023-02-06T05:51:53.879Z,0.00
2023-02-06T05:52:53.839Z,0.00
2023-02-06T05:53:53.840Z,0.00
2023-02-06T05:54:53.754Z,0.00
2023-02-06T05:55:53.716Z,0.00
2023-02-06T05:56:53.685Z,0.00
2023-02-06T05:57:53.638Z,0.00
2023-02-06T05:58:53.596Z,0.00
2023-02-06T05:59:53.560Z,0.00
2023-02-06T06:00:53.515Z,0.00
2023-02-06T06:01:53.473Z,0.00
2023-02-06T06:02:53.433Z,0.00
2023-02-06T06:03:53.409Z,0.00
2023-02-06T06:04:53.466Z,0.00
2023-02-06T06:05:53.324Z,0.00
2023-02-06T06:06:53.294Z,0.00
2023-02-06T06:07:53.248Z,0.00
2023-02-06T06:08:53.223Z,0.00
2023-02-06T06:09:53.164Z,0.00
2023-02-06T06:10:53.115Z,0.00
2023-02-06T06:11:53.076Z,0.00
2023-02-06T06:12:53.039Z,0.00
2023-02-06T06:13:52.990Z,0.00
2023-02-06T06:14:52.983Z,0.00
2023-02-06T06:15:52.933Z,0.00
2023-02-06T06:16:52.890Z,0.00
2023-02-06T06:17:52.836Z,0.00
2023-02-06T06:18:52.792Z,0.00
2023-02-06T06:19:52.753Z,0.00
2023-02-06T06:20:52.711Z,0.00
2023-02-06T06:21:52.702Z,0.00
2023-02-06T06:22:52.629Z,0.00
2023-02-06T06:23:52.599Z,0.00
2023-02-06T06:24:52.550Z,0.00
2023-02-06T06:25:52.505Z,0.00
2023-02-06T06:26:52.484Z,0.00
2023-02-06T06:27:52.486Z,0.00
2023-02-06T06:28:52.393Z,0.00
2023-02-06T06:29:52.348Z,0.00
2023-02-06T06:30:52.341Z,0.00
2023-02-06T06:31:52.301Z,0.00
2023-02-06T06:32:52.230Z,0.00
2023-02-06T06:33:52.193Z,0.00
2023-02-06T06:34:52.157Z,0.00
2023-02-06T06:35:52.114Z,0.00
2023-02-06T06:36:52.066Z,0.00
2023-02-06T06:37:52.030Z,0.00
2023-02-06T06:38:51.981Z,0.00
2023-02-06T06:39:51.947Z,0.00
2023-02-06T06:40:51.918Z,4.00
2023-02-06T06:41:51.866Z,4.00
2023-02-06T06:42:51.827Z,4.00
2023-02-06T06:43:51.781Z,0.00
2023-02-06T06:44:51.755Z,0.00
2023-02-06T06:45:51.811Z,0.00
2023-02-06T06:46:51.708Z,4.00
2023-02-06T06:47:51.622Z,4.00
2023-02-06T06:48:51.586Z,4.00
2023-02-06T06:49:51.536Z,4.00
2023-02-06T06:50:51.503Z,4.00
2023-02-06T06:51:51.485Z,4.00
2023-02-06T06:52:51.420Z,8.00
2023-02-06T06:53:51.389Z,4.00
2023-02-06T06:54:52.520Z,8.00
2023-02-06T06:55:51.305Z,8.00
2023-02-06T06:56:51.274Z,8.00
2023-02-06T06:57:51.235Z,12.00
2023-02-06T06:58:51.192Z,12.00
2023-02-06T06:59:51.134Z,12.00
2023-02-06T07:00:51.120Z,16.00
2023-02-06T07:01:51.063Z,20.00
2023-02-06T07:02:51.119Z,20.00
2023-02-06T07:03:50.987Z,24.00
2023-02-06T07:04:50.948Z,24.00
2023-02-06T07:05:53.148Z,24.00
2023-02-06T07:06:50.866Z,28.00
2023-02-06T07:07:50.818Z,28.00
2023-02-06T07:08:50.778Z,32.00
2023-02-06T07:09:50.743Z,32.00
2023-02-06T07:10:50.700Z,32.00
2023-02-06T07:11:50.663Z,28.00
2023-02-06T07:12:50.617Z,36.00
2023-02-06T07:13:50.586Z,40.00
2023-02-06T07:14:50.550Z,44.00
2023-02-06T07:15:50.498Z,44.00
2023-02-06T07:16:50.459Z,44.00
2023-02-06T07:17:50.414Z,44.00
2023-02-06T07:18:50.375Z,52.00
2023-02-06T07:19:50.335Z,56.00
2023-02-06T07:20:50.300Z,60.00
2023-02-06T07:21:50.252Z,64.00
2023-02-06T07:22:50.253Z,68.00
2023-02-06T07:23:50.179Z,72.00
2023-02-06T07:24:50.150Z,72.00
2023-02-06T07:25:50.104Z,76.00
2023-02-06T07:26:50.059Z,84.00
2023-02-06T07:27:50.058Z,84.00
2023-02-06T07:28:49.981Z,96.00
2023-02-06T07:29:49.951Z,104.00
2023-02-06T07:30:49.924Z,112.00
2023-02-06T07:31:49.906Z,116.00
2023-02-06T07:32:49.817Z,116.00
2023-02-06T07:33:49.778Z,132.00
2023-02-06T07:34:49.736Z,152.00
2023-02-06T07:35:49.700Z,164.00
2023-02-06T07:36:49.661Z,164.00
2023-02-06T07:37:49.617Z,164.00
2023-02-06T07:38:49.577Z,164.00
2023-02-06T07:39:49.535Z,172.00
2023-02-06T07:40:49.494Z,176.00
2023-02-06T07:41:49.450Z,184.00
2023-02-06T07:42:49.418Z,192.00
2023-02-06T07:43:49.396Z,192.00
2023-02-06T07:44:49.365Z,176.00
2023-02-06T07:45:49.321Z,172.00
2023-02-06T07:46:49.259Z,184.00
2023-02-06T07:47:49.218Z,192.00
2023-02-06T07:48:49.183Z,200.00
2023-02-06T07:49:49.129Z,204.00
2023-02-06T07:50:49.095Z,212.00
2023-02-06T07:51:49.055Z,224.00
2023-02-06T07:52:49.014Z,244.00
2023-02-06T07:53:48.972Z,256.00
2023-02-06T07:54:48.935Z,256.00
2023-02-06T07:55:48.914Z,260.00
2023-02-06T07:56:48.861Z,276.00
2023-02-06T07:57:48.816Z,288.00
2023-02-06T07:58:48.787Z,280.00
2023-02-06T07:59:48.765Z,276.00
2023-02-06T08:00:48.720Z,276.00
2023-02-06T08:01:48.650Z,292.00
2023-02-06T08:02:48.627Z,312.00
2023-02-06T08:03:48.617Z,312.00
2023-02-06T08:04:48.539Z,304.00
2023-02-06T08:05:48.501Z,304.00
2023-02-06T08:06:48.457Z,300.00
2023-02-06T08:07:48.416Z,312.00
2023-02-06T08:08:48.402Z,324.00
2023-02-06T08:09:48.400Z,336.00
2023-02-06T08:10:48.295Z,340.00
2023-02-06T08:11:48.252Z,336.00
2023-02-06T08:12:48.225Z,312.00
2023-02-06T08:13:48.176Z,296.00
2023-02-06T08:14:48.141Z,312.00
2023-02-06T08:15:48.096Z,352.00
2023-02-06T08:16:48.118Z,380.00
2023-02-06T08:17:48.029Z,372.00
2023-02-06T08:18:47.974Z,340.00
2023-02-06T08:19:47.932Z,296.00
2023-02-06T08:20:47.903Z,280.00
2023-02-06T08:21:47.863Z,308.00
2023-02-06T08:22:47.824Z,324.00
2023-02-06T08:23:47.776Z,332.00
2023-02-06T08:24:47.736Z,380.00
2023-02-06T08:25:47.700Z,436.00
2023-02-06T08:26:47.661Z,468.00
2023-02-06T08:27:47.635Z,476.00
2023-02-06T08:28:47.585Z,480.00
2023-02-06T08:29:47.544Z,504.00
2023-02-06T08:30:47.668Z,540.00
2023-02-06T08:31:47.536Z,520.00
2023-02-06T08:32:47.424Z,496.00
2023-02-06T08:33:47.383Z,488.00
2023-02-06T08:34:47.352Z,508.00
2023-02-06T08:35:47.296Z,544.00
2023-02-06T08:36:47.258Z,588.00
2023-02-06T08:37:47.224Z,628.00
2023-02-06T08:38:47.188Z,612.00
2023-02-06T08:39:47.147Z,568.00
2023-02-06T08:40:47.103Z,516.00
2023-02-06T08:41:47.075Z,528.00
2023-02-06T08:42:47.020Z,580.00
2023-02-06T08:43:46.988Z,660.00
2023-02-06T08:44:46.945Z,680.00
2023-02-06T08:45:46.923Z,656.00
2023-02-06T08:46:46.864Z,620.00
2023-02-06T08:47:46.867Z,544.00
2023-02-06T08:48:46.784Z,516.00
2023-02-06T08:49:46.756Z,540.00
2023-02-06T08:50:46.713Z,584.00
2023-02-06T08:51:46.661Z,568.00
2023-02-06T08:52:46.644Z,528.00
2023-02-06T08:53:46.583Z,504.00
2023-02-06T08:54:46.556Z,496.00
2023-02-06T08:55:46.498Z,508.00
2023-02-06T08:56:46.468Z,552.00
2023-02-06T08:57:46.425Z,580.00
2023-02-06T08:58:46.387Z,580.00
2023-02-06T08:59:46.371Z,584.00
2023-02-06T09:00:46.322Z,584.00
2023-02-06T09:01:46.360Z,608.00
2023-02-06T09:02:46.337Z,592.00
2023-02-06T09:03:46.196Z,556.00
2023-02-06T09:04:46.167Z,536.00
2023-02-06T09:05:46.109Z,552.00
2023-02-06T09:06:46.114Z,548.00
2023-02-06T09:07:46.040Z,536.00
2023-02-06T09:08:45.992Z,536.00
2023-02-06T09:09:45.957Z,532.00
2023-02-06T09:10:45.923Z,516.00
2023-02-06T09:11:45.870Z,504.00
2023-02-06T09:12:45.835Z,480.00
2023-02-06T09:13:47.733Z,504.00
2023-02-06T09:14:45.751Z,556.00
2023-02-06T09:15:45.772Z,624.00
2023-02-06T09:16:45.683Z,668.00
2023-02-06T09:17:45.636Z,692.00
2023-02-06T09:18:45.600Z,688.00
2023-02-06T09:19:45.562Z,620.00
2023-02-06T09:20:45.519Z,556.00
2023-02-06T09:21:45.526Z,524.00
2023-02-06T09:22:45.470Z,524.00
2023-02-06T09:23:45.389Z,520.00
2023-02-06T09:24:45.353Z,520.00
2023-02-06T09:25:45.307Z,548.00
2023-02-06T09:26:59.031Z,624.00
2023-02-06T09:27:45.253Z,680.00
2023-02-06T09:28:45.252Z,680.00
2023-02-06T09:29:45.155Z,708.00
2023-02-06T09:30:45.195Z,772.00
2023-02-06T09:31:45.138Z,816.00
2023-02-06T09:32:45.035Z,900.00
2023-02-06T09:33:44.995Z,924.00
2023-02-06T09:34:44.955Z,940.00
2023-02-06T09:35:45.008Z,968.00
2023-02-06T09:36:44.876Z,1024.00
2023-02-06T09:37:44.832Z,1112.00
2023-02-06T09:38:44.798Z,1168.00
2023-02-06T09:39:44.757Z,1140.00
2023-02-06T09:40:44.709Z,1076.00
2023-02-06T09:41:44.676Z,956.00
2023-02-06T09:42:44.637Z,836.00
2023-02-06T09:43:44.601Z,792.00
2023-02-06T09:44:44.562Z,780.00
2023-02-06T09:45:44.515Z,796.00
2023-02-06T09:46:47.137Z,816.00
2023-02-06T09:47:47.042Z,808.00
2023-02-06T09:48:44.398Z,772.00
2023-02-06T09:49:44.370Z,792.00
2023-02-06T09:50:44.356Z,856.00
2023-02-06T09:51:44.284Z,956.00
2023-02-06T09:52:44.244Z,1056.00
2023-02-06T09:53:44.216Z,1104.00
2023-02-06T09:54:44.167Z,1148.00
2023-02-06T09:55:44.118Z,1184.00
2023-02-06T09:56:44.086Z,1228.00
2023-02-06T09:57:44.047Z,1240.00
2023-02-06T09:58:44.006Z,1244.00
2023-02-06T09:59:43.966Z,1280.00
2023-02-06T10:00:43.942Z,1372.00
2023-02-06T10:01:43.925Z,1484.00
2023-02-06T10:02:43.846Z,1620.00
2023-02-06T10:03:43.894Z,1776.00
2023-02-06T10:04:43.774Z,1832.00
2023-02-06T10:05:43.735Z,1856.00
2023-02-06T10:06:43.721Z,1816.00
2023-02-06T10:07:43.659Z,1708.00
2023-02-06T10:08:43.614Z,1636.00
2023-02-06T10:09:43.582Z,1632.00
2023-02-06T10:10:43.557Z,1620.00
2023-02-06T10:11:43.518Z,1636.00
2023-02-06T10:12:43.456Z,1516.00
2023-02-06T10:13:43.414Z,1312.00
2023-02-06T10:14:43.422Z,1148.00
2023-02-06T10:15:43.338Z,1048.00
2023-02-06T10:16:43.300Z,1024.00
2023-02-06T10:17:43.266Z,1024.00
2023-02-06T10:18:43.230Z,1008.00
2023-02-06T10:19:43.180Z,948.00
2023-02-06T10:20:43.159Z,896.00
2023-02-06T10:21:43.103Z,860.00
2023-02-06T10:22:43.085Z,840.00
2023-02-06T10:23:43.036Z,856.00
2023-02-06T10:24:43.229Z,884.00
2023-02-06T10:25:42.978Z,920.00
2023-02-06T10:26:42.912Z,952.00
2023-02-06T10:27:42.875Z,988.00
2023-02-06T10:28:42.846Z,1020.00
2023-02-06T10:29:42.806Z,1084.00
2023-02-06T10:30:42.786Z,1208.00
2023-02-06T10:31:42.720Z,1380.00
2023-02-06T10:32:42.691Z,1580.00
2023-02-06T10:33:42.643Z,1796.00
2023-02-06T10:34:42.613Z,2020.00
2023-02-06T10:35:42.563Z,2184.00
2023-02-06T10:36:43.800Z,2312.00
2023-02-06T10:37:42.487Z,2340.00
2023-02-06T10:38:42.488Z,2384.00
2023-02-06T10:39:42.415Z,2296.00
2023-02-06T10:40:42.397Z,2124.00
2023-02-06T10:41:42.330Z,2072.00
2023-02-06T10:42:42.307Z,2288.00
2023-02-06T10:43:42.253Z,1948.00
2023-02-06T10:44:50.844Z,1840.00
2023-02-06T10:45:42.167Z,1784.00
2023-02-06T10:46:42.290Z,1848.00
2023-02-06T10:47:42.105Z,1864.00
2023-02-06T10:48:42.059Z,1868.00
2023-02-06T10:49:42.020Z,1824.00
2023-02-06T10:50:41.983Z,1788.00
2023-02-06T10:51:41.947Z,1804.00
2023-02-06T10:52:41.907Z,1828.00
2023-02-06T10:53:41.877Z,1796.00
2023-02-06T10:54:41.850Z,1736.00
2023-02-06T10:55:42.451Z,1688.00
2023-02-06T10:56:41.799Z,1588.00
2023-02-06T10:57:41.710Z,1552.00
2023-02-06T10:58:41.671Z,1540.00
2023-02-06T10:59:41.643Z,1540.00
2023-02-06T11:00:41.626Z,1616.00
2023-02-06T11:01:41.713Z,1652.00
2023-02-06T11:02:41.516Z,1656.00
2023-02-06T11:03:41.495Z,1604.00
2023-02-06T11:04:41.439Z,1544.00
2023-02-06T11:05:41.506Z,1544.00
2023-02-06T11:06:41.358Z,1672.00
2023-02-06T11:07:41.321Z,1832.00
2023-02-06T11:08:41.285Z,2024.00
2023-02-06T11:09:41.245Z,2252.00
2023-02-06T11:10:41.221Z,2872.00
2023-02-06T11:11:41.174Z,3584.00
2023-02-06T11:12:41.142Z,1496.00
2023-02-06T11:13:41.096Z,1344.00
2023-02-06T11:14:41.050Z,1260.00
2023-02-06T11:15:41.015Z,1280.00
2023-02-06T11:16:41.001Z,1320.00
2023-02-06T11:17:40.938Z,1412.00
2023-02-06T11:18:40.901Z,1592.00
2023-02-06T11:19:40.859Z,1780.00
2023-02-06T11:20:40.842Z,2080.00
2023-02-06T11:21:40.791Z,3312.00
2023-02-06T11:22:52.032Z,3712.00
2023-02-06T11:23:40.699Z,5836.00
2023-02-06T11:24:40.664Z,6204.00
2023-02-06T11:25:40.751Z,4196.00
2023-02-06T11:26:40.685Z,5464.00
2023-02-06T11:27:40.599Z,3300.00
2023-02-06T11:28:40.515Z,3904.00
2023-02-06T11:29:40.470Z,3188.00
2023-02-06T11:30:40.718Z,2664.00
2023-02-06T11:31:40.471Z,2456.00
2023-02-06T11:32:40.357Z,2380.00
2023-02-06T11:33:40.317Z,2392.00
2023-02-06T11:34:40.276Z,2424.00
2023-02-06T11:35:40.572Z,2336.00
2023-02-06T11:36:40.208Z,3032.00
2023-02-06T11:37:40.182Z,1956.00
2023-02-06T11:38:40.123Z,1988.00
2023-02-06T11:39:40.088Z,2412.00
2023-02-06T11:40:40.041Z,5844.00
2023-02-06T11:41:40.031Z,6852.00
2023-02-06T11:42:39.962Z,4380.00
2023-02-06T11:43:39.935Z,2880.00
2023-02-06T11:44:39.896Z,2452.00
2023-02-06T11:45:40.144Z,2112.00
2023-02-06T11:46:39.814Z,1912.00
2023-02-06T11:47:39.783Z,1904.00
2023-02-06T11:48:39.741Z,1904.00
2023-02-06T11:49:39.704Z,1812.00
2023-02-06T11:50:39.660Z,2016.00
2023-02-06T11:51:39.624Z,2876.00
2023-02-06T11:52:39.588Z,2912.00
2023-02-06T11:53:39.551Z,2796.00
2023-02-06T11:54:39.506Z,3260.00
2023-02-06T11:55:39.757Z,4504.00
2023-02-06T11:56:39.447Z,4232.00
2023-02-06T11:57:39.407Z,3064.00
2023-02-06T11:58:39.364Z,2708.00
2023-02-06T11:59:39.338Z,2308.00
2023-02-06T12:00:39.276Z,2008.00
2023-02-06T12:01:39.242Z,1820.00
2023-02-06T12:02:39.200Z,1908.00
2023-02-06T12:03:39.205Z,2516.00
2023-02-06T12:04:39.136Z,5128.00
2023-02-06T12:05:39.484Z,8428.00
2023-02-06T12:06:39.048Z,8360.00
2023-02-06T12:07:39.021Z,4500.00
2023-02-06T12:08:38.978Z,7376.00
2023-02-06T12:09:38.974Z,3048.00
2023-02-06T12:10:38.894Z,3456.00
2023-02-06T12:11:38.862Z,3164.00
2023-02-06T12:12:38.854Z,3800.00
2023-02-06T12:13:38.779Z,3812.00
2023-02-06T12:14:38.742Z,7000.00
2023-02-06T12:15:46.649Z,3056.00
2023-02-06T12:16:38.731Z,3168.00
2023-02-06T12:17:38.622Z,2972.00
2023-02-06T12:18:38.601Z,2604.00
2023-02-06T12:19:38.547Z,2152.00
2023-02-06T12:20:38.515Z,1976.00
2023-02-06T12:21:38.495Z,2424.00
2023-02-06T12:22:38.436Z,3376.00
2023-02-06T12:23:38.409Z,4128.00
2023-02-06T12:24:38.360Z,2752.00
2023-02-06T12:25:38.676Z,2280.00
2023-02-06T12:26:38.284Z,1876.00
2023-02-06T12:27:39.444Z,1548.00
2023-02-06T12:28:38.210Z,1420.00
2023-02-06T12:29:38.179Z,1408.00
2023-02-06T12:30:38.222Z,1348.00
2023-02-06T12:31:38.353Z,1360.00
2023-02-06T12:32:38.074Z,1568.00
2023-02-06T12:33:38.012Z,1980.00
2023-02-06T12:34:37.977Z,2960.00
2023-02-06T12:35:38.342Z,6908.00
2023-02-06T12:36:37.900Z,7192.00
2023-02-06T12:37:37.873Z,2320.00
2023-02-06T12:38:37.826Z,1732.00
2023-02-06T12:39:37.787Z,1568.00
2023-02-06T12:40:37.746Z,1468.00
2023-02-06T12:41:37.706Z,1616.00
2023-02-06T12:42:37.665Z,2216.00
2023-02-06T12:43:37.634Z,3384.00
2023-02-06T12:44:37.612Z,5316.00
2023-02-06T12:45:37.877Z,5128.00
2023-02-06T12:46:37.513Z,3956.00
2023-02-06T12:47:37.495Z,2652.00
2023-02-06T12:48:37.482Z,2860.00
2023-02-06T12:49:37.411Z,4528.00